sensor_id;sensor_type;location;lat;lon;timestamp;P1;durP1;ratioP1;P2;durP2;ratioP2
22289;SDS011;11313;50.116;8.424;2024-02-14T00:00:46;2.28;;;1.77;;
22289;SDS011;11313;50.116;8.424;2024-02-14T00:03:11;4.22;;;2.42;;
22289;SDS011;11313;50.116;8.424;2024-02-14T00:05:37;2.80;;;2.10;;
22289;SDS011;11313;50.116;8.424;2024-02-14T00:08:02;2.55;;;1.90;;
22289;SDS011;11313;50.116;8.424;2024-02-14T00:10:28;1.85;;;1.70;;
22289;SDS011;11313;50.116;8.424;2024-02-14T00:12:54;3.45;;;2.05;;
22289;SDS011;11313;50.116;8.424;2024-02-14T00:15:19;2.00;;;1.70;;
22289;SDS011;11313;50.116;8.424;2024-02-14T00:17:45;2.33;;;1.92;;
22289;SDS011;11313;50.116;8.424;2024-02-14T00:20:10;2.15;;;1.80;;
22289;SDS011;11313;50.116;8.424;2024-02-14T00:22:37;1.83;;;1.70;;
22289;SDS011;11313;50.116;8.424;2024-02-14T00:25:03;2.78;;;2.05;;
22289;SDS011;11313;50.116;8.424;2024-02-14T00:27:29;2.25;;;1.95;;
22289;SDS011;11313;50.116;8.424;2024-02-14T00:29:55;2.45;;;1.90;;
22289;SDS011;11313;50.116;8.424;2024-02-14T00:32:21;2.53;;;1.85;;
22289;SDS011;11313;50.116;8.424;2024-02-14T00:34:47;2.97;;;2.15;;
22289;SDS011;11313;50.116;8.424;2024-02-14T00:37:12;2.83;;;1.90;;
22289;SDS011;11313;50.116;8.424;2024-02-14T00:39:38;2.13;;;1.92;;
22289;SDS011;11313;50.116;8.424;2024-02-14T00:42:04;2.35;;;1.80;;
22289;SDS011;11313;50.116;8.424;2024-02-14T00:44:29;3.10;;;2.00;;
22289;SDS011;11313;50.116;8.424;2024-02-14T00:46:55;2.45;;;1.88;;
22289;SDS011;11313;50.116;8.424;2024-02-14T00:49:27;2.17;;;1.98;;
22289;SDS011;11313;50.116;8.424;2024-02-14T00:51:53;3.90;;;2.00;;
22289;SDS011;11313;50.116;8.424;2024-02-14T00:54:19;2.20;;;1.92;;
22289;SDS011;11313;50.116;8.424;2024-02-14T00:56:45;2.05;;;1.80;;
22289;SDS011;11313;50.116;8.424;2024-02-14T00:59:10;2.45;;;1.80;;
22289;SDS011;11313;50.116;8.424;2024-02-14T01:01:36;2.03;;;1.83;;
22289;SDS011;11313;50.116;8.424;2024-02-14T01:04:01;2.20;;;1.92;;
22289;SDS011;11313;50.116;8.424;2024-02-14T01:06:27;2.38;;;2.17;;
22289;SDS011;11313;50.116;8.424;2024-02-14T01:08:55;1.98;;;1.80;;
22289;SDS011;11313;50.116;8.424;2024-02-14T01:11:21;2.20;;;2.00;;
22289;SDS011;11313;50.116;8.424;2024-02-14T01:13:46;2.53;;;1.80;;
22289;SDS011;11313;50.116;8.424;2024-02-14T01:16:12;2.42;;;2.10;;
22289;SDS011;11313;50.116;8.424;2024-02-14T01:18:37;2.42;;;1.90;;
22289;SDS011;11313;50.116;8.424;2024-02-14T01:21:03;2.40;;;2.00;;
22289;SDS011;11313;50.116;8.424;2024-02-14T01:23:29;3.03;;;2.00;;
22289;SDS011;11313;50.116;8.424;2024-02-14T01:25:54;2.03;;;1.80;;
22289;SDS011;11313;50.116;8.424;2024-02-14T01:28:20;2.40;;;2.03;;
22289;SDS011;11313;50.116;8.424;2024-02-14T01:30:46;2.20;;;2.00;;
22289;SDS011;11313;50.116;8.424;2024-02-14T01:33:11;3.08;;;2.00;;
22289;SDS011;11313;50.116;8.424;2024-02-14T01:35:37;2.45;;;2.05;;
22289;SDS011;11313;50.116;8.424;2024-02-14T01:38:02;2.30;;;2.10;;
22289;SDS011;11313;50.116;8.424;2024-02-14T01:40:28;2.13;;;1.90;;
22289;SDS011;11313;50.116;8.424;2024-02-14T01:42:54;4.80;;;2.10;;
22289;SDS011;11313;50.116;8.424;2024-02-14T01:45:20;2.60;;;2.10;;
22289;SDS011;11313;50.116;8.424;2024-02-14T01:47:46;2.10;;;1.80;;
22289;SDS011;11313;50.116;8.424;2024-02-14T01:50:12;2.78;;;2.00;;
22289;SDS011;11313;50.116;8.424;2024-02-14T01:52:38;2.30;;;2.00;;
22289;SDS011;11313;50.116;8.424;2024-02-14T01:55:04;2.20;;;2.00;;
22289;SDS011;11313;50.116;8.424;2024-02-14T01:57:31;2.83;;;2.00;;
22289;SDS011;11313;50.116;8.424;2024-02-14T01:59:59;2.28;;;1.88;;
22289;SDS011;11313;50.116;8.424;2024-02-14T02:02:29;2.22;;;2.03;;
22289;SDS011;11313;50.116;8.424;2024-02-14T02:04:55;2.20;;;2.00;;
22289;SDS011;11313;50.116;8.424;2024-02-14T02:07:20;2.13;;;1.92;;
22289;SDS011;11313;50.116;8.424;2024-02-14T02:09:46;2.90;;;2.15;;
22289;SDS011;11313;50.116;8.424;2024-02-14T02:12:11;2.45;;;1.90;;
22289;SDS011;11313;50.116;8.424;2024-02-14T02:14:37;2.40;;;2.10;;
22289;SDS011;11313;50.116;8.424;2024-02-14T02:17:02;2.20;;;2.00;;
22289;SDS011;11313;50.116;8.424;2024-02-14T02:19:32;3.33;;;2.17;;
22289;SDS011;11313;50.116;8.424;2024-02-14T02:21:58;2.40;;;2.10;;
22289;SDS011;11313;50.116;8.424;2024-02-14T02:24:24;2.10;;;1.90;;
22289;SDS011;11313;50.116;8.424;2024-02-14T02:26:50;2.65;;;2.22;;
22289;SDS011;11313;50.116;8.424;2024-02-14T02:29:15;2.20;;;2.00;;
22289;SDS011;11313;50.116;8.424;2024-02-14T02:31:41;2.60;;;2.00;;
22289;SDS011;11313;50.116;8.424;2024-02-14T02:34:06;2.47;;;2.00;;
22289;SDS011;11313;50.116;8.424;2024-02-14T02:36:35;2.50;;;2.20;;
22289;SDS011;11313;50.116;8.424;2024-02-14T02:39:02;2.38;;;2.00;;
22289;SDS011;11313;50.116;8.424;2024-02-14T02:41:29;2.55;;;2.20;;
22289;SDS011;11313;50.116;8.424;2024-02-14T02:43:56;2.80;;;2.28;;
22289;SDS011;11313;50.116;8.424;2024-02-14T02:46:22;2.30;;;2.10;;
22289;SDS011;11313;50.116;8.424;2024-02-14T02:48:48;2.10;;;1.90;;
22289;SDS011;11313;50.116;8.424;2024-02-14T02:51:15;2.38;;;2.15;;
22289;SDS011;11313;50.116;8.424;2024-02-14T02:53:42;2.25;;;2.05;;
22289;SDS011;11313;50.116;8.424;2024-02-14T02:56:07;2.33;;;1.98;;
22289;SDS011;11313;50.116;8.424;2024-02-14T02:58:33;2.30;;;2.00;;
22289;SDS011;11313;50.116;8.424;2024-02-14T03:00:59;2.65;;;2.17;;
22289;SDS011;11313;50.116;8.424;2024-02-14T03:03:24;2.15;;;1.95;;
22289;SDS011;11313;50.116;8.424;2024-02-14T03:05:52;2.90;;;1.90;;
22289;SDS011;11313;50.116;8.424;2024-02-14T03:08:18;3.00;;;2.10;;
22289;SDS011;11313;50.116;8.424;2024-02-14T03:10:44;2.33;;;1.90;;
22289;SDS011;11313;50.116;8.424;2024-02-14T03:13:10;2.00;;;1.70;;
22289;SDS011;11313;50.116;8.424;2024-02-14T03:15:39;2.20;;;2.00;;
22289;SDS011;11313;50.116;8.424;2024-02-14T03:18:05;2.30;;;1.88;;
22289;SDS011;11313;50.116;8.424;2024-02-14T03:20:33;2.58;;;1.95;;
22289;SDS011;11313;50.116;8.424;2024-02-14T03:22:59;2.03;;;1.83;;
22289;SDS011;11313;50.116;8.424;2024-02-14T03:25:25;2.50;;;1.90;;
22289;SDS011;11313;50.116;8.424;2024-02-14T03:27:51;2.17;;;1.80;;
22289;SDS011;11313;50.116;8.424;2024-02-14T03:30:18;3.13;;;2.00;;
22289;SDS011;11313;50.116;8.424;2024-02-14T03:32:48;2.38;;;2.00;;
22289;SDS011;11313;50.116;8.424;2024-02-14T03:35:14;2.47;;;1.88;;
22289;SDS011;11313;50.116;8.424;2024-02-14T03:37:43;2.30;;;2.08;;
22289;SDS011;11313;50.116;8.424;2024-02-14T03:40:12;2.10;;;1.70;;
22289;SDS011;11313;50.116;8.424;2024-02-14T03:42:38;1.88;;;1.77;;
22289;SDS011;11313;50.116;8.424;2024-02-14T03:45:07;2.10;;;1.77;;
22289;SDS011;11313;50.116;8.424;2024-02-14T03:47:33;2.30;;;1.90;;
22289;SDS011;11313;50.116;8.424;2024-02-14T03:49:59;2.55;;;1.80;;
22289;SDS011;11313;50.116;8.424;2024-02-14T03:52:25;1.85;;;1.73;;
22289;SDS011;11313;50.116;8.424;2024-02-14T03:54:51;2.20;;;2.00;;
22289;SDS011;11313;50.116;8.424;2024-02-14T03:57:17;1.90;;;1.70;;
22289;SDS011;11313;50.116;8.424;2024-02-14T03:59:43;2.30;;;1.70;;
22289;SDS011;11313;50.116;8.424;2024-02-14T04:02:09;1.85;;;1.75;;
22289;SDS011;11313;50.116;8.424;2024-02-14T04:04:36;2.03;;;1.83;;
22289;SDS011;11313;50.116;8.424;2024-02-14T04:07:02;2.08;;;1.88;;
22289;SDS011;11313;50.116;8.424;2024-02-14T04:09:28;2.35;;;1.80;;
22289;SDS011;11313;50.116;8.424;2024-02-14T04:11:54;1.80;;;1.70;;
22289;SDS011;11313;50.116;8.424;2024-02-14T04:14:20;1.95;;;1.80;;
22289;SDS011;11313;50.116;8.424;2024-02-14T04:16:46;1.98;;;1.60;;
22289;SDS011;11313;50.116;8.424;2024-02-14T04:19:11;2.33;;;1.85;;
22289;SDS011;11313;50.116;8.424;2024-02-14T04:21:38;2.05;;;1.85;;
22289;SDS011;11313;50.116;8.424;2024-02-14T04:24:03;1.65;;;1.55;;
22289;SDS011;11313;50.116;8.424;2024-02-14T04:26:29;1.90;;;1.70;;
22289;SDS011;11313;50.116;8.424;2024-02-14T04:28:54;2.00;;;1.80;;
22289;SDS011;11313;50.116;8.424;2024-02-14T04:31:20;1.90;;;1.60;;
22289;SDS011;11313;50.116;8.424;2024-02-14T04:33:45;3.38;;;1.70;;
22289;SDS011;11313;50.116;8.424;2024-02-14T04:36:17;1.67;;;1.50;;
22289;SDS011;11313;50.116;8.424;2024-02-14T04:38:44;1.90;;;1.70;;
22289;SDS011;11313;50.116;8.424;2024-02-14T04:41:10;2.35;;;1.70;;
22289;SDS011;11313;50.116;8.424;2024-02-14T04:43:35;2.10;;;1.80;;
22289;SDS011;11313;50.116;8.424;2024-02-14T04:46:01;1.92;;;1.70;;
22289;SDS011;11313;50.116;8.424;2024-02-14T04:48:26;2.33;;;1.70;;
22289;SDS011;11313;50.116;8.424;2024-02-14T04:50:52;2.17;;;1.98;;
22289;SDS011;11313;50.116;8.424;2024-02-14T04:53:18;2.15;;;1.60;;
22289;SDS011;11313;50.116;8.424;2024-02-14T04:55:44;1.83;;;1.70;;
22289;SDS011;11313;50.116;8.424;2024-02-14T04:58:10;2.78;;;1.80;;
22289;SDS011;11313;50.116;8.424;2024-02-14T05:00:35;1.92;;;1.52;;
22289;SDS011;11313;50.116;8.424;2024-02-14T05:03:01;1.63;;;1.52;;
22289;SDS011;11313;50.116;8.424;2024-02-14T05:05:26;2.60;;;1.98;;
22289;SDS011;11313;50.116;8.424;2024-02-14T05:07:53;1.95;;;1.80;;
22289;SDS011;11313;50.116;8.424;2024-02-14T05:10:18;1.88;;;1.35;;
22289;SDS011;11313;50.116;8.424;2024-02-14T05:12:44;2.03;;;1.77;;
22289;SDS011;11313;50.116;8.424;2024-02-14T05:15:09;1.60;;;1.50;;
22289;SDS011;11313;50.116;8.424;2024-02-14T05:17:37;1.90;;;1.70;;
22289;SDS011;11313;50.116;8.424;2024-02-14T05:20:02;1.67;;;1.55;;
22289;SDS011;11313;50.116;8.424;2024-02-14T05:22:33;3.47;;;1.85;;
22289;SDS011;11313;50.116;8.424;2024-02-14T05:25:01;1.60;;;1.50;;
22289;SDS011;11313;50.116;8.424;2024-02-14T05:27:26;2.08;;;1.88;;
22289;SDS011;11313;50.116;8.424;2024-02-14T05:29:52;1.95;;;1.50;;
22289;SDS011;11313;50.116;8.424;2024-02-14T05:32:17;2.55;;;1.67;;
22289;SDS011;11313;50.116;8.424;2024-02-14T05:34:43;1.65;;;1.50;;
22289;SDS011;11313;50.116;8.424;2024-02-14T05:37:08;1.92;;;1.58;;
22289;SDS011;11313;50.116;8.424;2024-02-14T05:39:33;2.08;;;1.70;;
22289;SDS011;11313;50.116;8.424;2024-02-14T05:41:59;2.22;;;1.52;;
22289;SDS011;11313;50.116;8.424;2024-02-14T05:44:24;1.52;;;1.40;;
22289;SDS011;11313;50.116;8.424;2024-02-14T05:46:52;2.22;;;1.40;;
22289;SDS011;11313;50.116;8.424;2024-02-14T05:49:18;2.50;;;1.70;;
22289;SDS011;11313;50.116;8.424;2024-02-14T05:51:43;3.78;;;1.73;;
22289;SDS011;11313;50.116;8.424;2024-02-14T05:54:09;3.10;;;1.67;;
22289;SDS011;11313;50.116;8.424;2024-02-14T05:56:34;2.72;;;1.58;;
22289;SDS011;11313;50.116;8.424;2024-02-14T05:59:00;2.00;;;1.52;;
22289;SDS011;11313;50.116;8.424;2024-02-14T06:01:25;2.33;;;1.70;;
22289;SDS011;11313;50.116;8.424;2024-02-14T06:03:50;4.13;;;1.60;;
22289;SDS011;11313;50.116;8.424;2024-02-14T06:06:16;2.95;;;1.52;;
22289;SDS011;11313;50.116;8.424;2024-02-14T06:08:41;3.15;;;1.80;;
22289;SDS011;11313;50.116;8.424;2024-02-14T06:11:07;3.00;;;1.77;;
22289;SDS011;11313;50.116;8.424;2024-02-14T06:13:33;2.72;;;1.75;;
22289;SDS011;11313;50.116;8.424;2024-02-14T06:16:00;3.47;;;1.63;;
22289;SDS011;11313;50.116;8.424;2024-02-14T06:18:26;3.45;;;1.83;;
22289;SDS011;11313;50.116;8.424;2024-02-14T06:20:51;5.10;;;1.80;;
22289;SDS011;11313;50.116;8.424;2024-02-14T06:23:17;4.15;;;1.83;;
22289;SDS011;11313;50.116;8.424;2024-02-14T06:25:43;3.90;;;1.77;;
22289;SDS011;11313;50.116;8.424;2024-02-14T06:28:08;5.97;;;1.90;;
22289;SDS011;11313;50.116;8.424;2024-02-14T06:30:34;7.25;;;1.80;;
22289;SDS011;11313;50.116;8.424;2024-02-14T06:33:00;2.42;;;1.63;;
22289;SDS011;11313;50.116;8.424;2024-02-14T06:35:27;5.03;;;1.80;;
22289;SDS011;11313;50.116;8.424;2024-02-14T06:37:53;2.67;;;1.90;;
22289;SDS011;11313;50.116;8.424;2024-02-14T06:40:19;6.40;;;2.05;;
22289;SDS011;11313;50.116;8.424;2024-02-14T06:42:45;4.78;;;1.55;;
22289;SDS011;11313;50.116;8.424;2024-02-14T06:45:10;5.95;;;1.80;;
22289;SDS011;11313;50.116;8.424;2024-02-14T06:47:36;5.95;;;2.00;;
22289;SDS011;11313;50.116;8.424;2024-02-14T06:50:01;7.60;;;2.10;;
22289;SDS011;11313;50.116;8.424;2024-02-14T06:52:27;5.28;;;2.10;;
22289;SDS011;11313;50.116;8.424;2024-02-14T06:54:53;5.90;;;2.13;;
22289;SDS011;11313;50.116;8.424;2024-02-14T06:57:19;4.78;;;2.00;;
22289;SDS011;11313;50.116;8.424;2024-02-14T06:59:44;4.28;;;2.33;;
22289;SDS011;11313;50.116;8.424;2024-02-14T07:02:10;3.45;;;1.90;;
22289;SDS011;11313;50.116;8.424;2024-02-14T07:04:35;6.78;;;2.13;;
22289;SDS011;11313;50.116;8.424;2024-02-14T07:07:02;16.17;;;2.65;;
22289;SDS011;11313;50.116;8.424;2024-02-14T07:09:27;16.48;;;3.13;;
22289;SDS011;11313;50.116;8.424;2024-02-14T07:11:53;12.45;;;3.33;;
22289;SDS011;11313;50.116;8.424;2024-02-14T07:14:21;11.85;;;3.20;;
22289;SDS011;11313;50.116;8.424;2024-02-14T07:16:47;10.25;;;2.75;;
22289;SDS011;11313;50.116;8.424;2024-02-14T07:19:12;12.98;;;3.03;;
22289;SDS011;11313;50.116;8.424;2024-02-14T07:21:38;11.93;;;2.75;;
22289;SDS011;11313;50.116;8.424;2024-02-14T07:24:04;11.77;;;2.75;;
22289;SDS011;11313;50.116;8.424;2024-02-14T07:26:30;12.35;;;2.78;;
22289;SDS011;11313;50.116;8.424;2024-02-14T07:28:56;9.88;;;2.90;;
22289;SDS011;11313;50.116;8.424;2024-02-14T07:31:21;10.65;;;2.88;;
22289;SDS011;11313;50.116;8.424;2024-02-14T07:33:48;14.25;;;3.00;;
22289;SDS011;11313;50.116;8.424;2024-02-14T07:36:14;9.57;;;2.45;;
22289;SDS011;11313;50.116;8.424;2024-02-14T07:38:40;11.05;;;2.55;;
22289;SDS011;11313;50.116;8.424;2024-02-14T07:41:07;12.73;;;2.50;;
22289;SDS011;11313;50.116;8.424;2024-02-14T07:43:33;10.73;;;2.95;;
22289;SDS011;11313;50.116;8.424;2024-02-14T07:45:59;11.68;;;2.80;;
22289;SDS011;11313;50.116;8.424;2024-02-14T07:48:24;6.80;;;2.47;;
22289;SDS011;11313;50.116;8.424;2024-02-14T07:50:49;10.98;;;2.88;;
22289;SDS011;11313;50.116;8.424;2024-02-14T07:53:15;8.15;;;2.60;;
22289;SDS011;11313;50.116;8.424;2024-02-14T07:55:40;10.77;;;2.67;;
22289;SDS011;11313;50.116;8.424;2024-02-14T07:58:06;10.20;;;2.55;;
22289;SDS011;11313;50.116;8.424;2024-02-14T08:00:32;8.88;;;2.50;;
22289;SDS011;11313;50.116;8.424;2024-02-14T08:02:58;10.73;;;2.47;;
22289;SDS011;11313;50.116;8.424;2024-02-14T08:05:23;9.57;;;2.55;;
22289;SDS011;11313;50.116;8.424;2024-02-14T08:07:49;6.47;;;2.45;;
22289;SDS011;11313;50.116;8.424;2024-02-14T08:10:14;6.65;;;2.40;;
22289;SDS011;11313;50.116;8.424;2024-02-14T08:12:40;9.60;;;2.38;;
22289;SDS011;11313;50.116;8.424;2024-02-14T08:15:07;8.13;;;2.50;;
22289;SDS011;11313;50.116;8.424;2024-02-14T08:17:32;7.68;;;2.53;;
22289;SDS011;11313;50.116;8.424;2024-02-14T08:19:58;5.93;;;2.38;;
22289;SDS011;11313;50.116;8.424;2024-02-14T08:22:24;8.07;;;2.20;;
22289;SDS011;11313;50.116;8.424;2024-02-14T08:24:51;6.72;;;2.53;;
22289;SDS011;11313;50.116;8.424;2024-02-14T08:27:17;9.00;;;2.63;;
22289;SDS011;11313;50.116;8.424;2024-02-14T08:29:42;4.88;;;2.10;;
22289;SDS011;11313;50.116;8.424;2024-02-14T08:32:08;8.43;;;2.42;;
22289;SDS011;11313;50.116;8.424;2024-02-14T08:34:33;6.72;;;2.30;;
22289;SDS011;11313;50.116;8.424;2024-02-14T08:36:59;7.05;;;2.30;;
22289;SDS011;11313;50.116;8.424;2024-02-14T08:39:24;9.57;;;2.30;;
22289;SDS011;11313;50.116;8.424;2024-02-14T08:41:51;6.57;;;2.38;;
22289;SDS011;11313;50.116;8.424;2024-02-14T08:44:17;6.05;;;2.10;;
22289;SDS011;11313;50.116;8.424;2024-02-14T08:46:43;5.80;;;2.13;;
22289;SDS011;11313;50.116;8.424;2024-02-14T08:49:09;8.63;;;2.55;;
22289;SDS011;11313;50.116;8.424;2024-02-14T08:51:35;5.55;;;2.58;;
22289;SDS011;11313;50.116;8.424;2024-02-14T08:54:01;6.20;;;2.42;;
22289;SDS011;11313;50.116;8.424;2024-02-14T08:56:30;7.03;;;2.33;;
22289;SDS011;11313;50.116;8.424;2024-02-14T08:58:58;5.28;;;2.03;;
22289;SDS011;11313;50.116;8.424;2024-02-14T09:01:27;8.05;;;2.20;;
22289;SDS011;11313;50.116;8.424;2024-02-14T09:03:53;5.82;;;2.15;;
22289;SDS011;11313;50.116;8.424;2024-02-14T09:06:19;7.43;;;2.00;;
22289;SDS011;11313;50.116;8.424;2024-02-14T09:08:44;5.95;;;2.22;;
22289;SDS011;11313;50.116;8.424;2024-02-14T09:11:10;6.57;;;2.10;;
22289;SDS011;11313;50.116;8.424;2024-02-14T09:13:37;4.47;;;2.10;;
22289;SDS011;11313;50.116;8.424;2024-02-14T09:16:03;3.33;;;1.92;;
22289;SDS011;11313;50.116;8.424;2024-02-14T09:18:30;3.78;;;1.83;;
22289;SDS011;11313;50.116;8.424;2024-02-14T09:20:56;7.07;;;2.28;;
22289;SDS011;11313;50.116;8.424;2024-02-14T09:23:22;5.40;;;1.90;;
22289;SDS011;11313;50.116;8.424;2024-02-14T09:25:48;4.68;;;1.98;;
22289;SDS011;11313;50.116;8.424;2024-02-14T09:28:17;4.75;;;2.05;;
22289;SDS011;11313;50.116;8.424;2024-02-14T09:30:43;3.25;;;1.80;;
22289;SDS011;11313;50.116;8.424;2024-02-14T09:33:09;5.45;;;2.25;;
22289;SDS011;11313;50.116;8.424;2024-02-14T09:35:34;2.83;;;1.90;;
22289;SDS011;11313;50.116;8.424;2024-02-14T09:38:02;3.22;;;1.52;;
22289;SDS011;11313;50.116;8.424;2024-02-14T09:40:28;3.50;;;2.00;;
22289;SDS011;11313;50.116;8.424;2024-02-14T09:42:54;7.00;;;2.20;;
22289;SDS011;11313;50.116;8.424;2024-02-14T09:45:23;3.92;;;1.90;;
22289;SDS011;11313;50.116;8.424;2024-02-14T09:47:51;4.38;;;1.60;;
22289;SDS011;11313;50.116;8.424;2024-02-14T09:50:17;3.40;;;1.70;;
22289;SDS011;11313;50.116;8.424;2024-02-14T09:52:46;3.78;;;1.73;;
22289;SDS011;11313;50.116;8.424;2024-02-14T09:55:13;3.78;;;1.83;;
22289;SDS011;11313;50.116;8.424;2024-02-14T09:57:40;4.40;;;1.67;;
22289;SDS011;11313;50.116;8.424;2024-02-14T10:00:07;3.80;;;1.75;;
22289;SDS011;11313;50.116;8.424;2024-02-14T10:02:40;2.67;;;1.58;;
22289;SDS011;11313;50.116;8.424;2024-02-14T10:05:06;2.75;;;1.85;;
22289;SDS011;11313;50.116;8.424;2024-02-14T10:07:42;3.40;;;1.70;;
22289;SDS011;11313;50.116;8.424;2024-02-14T10:10:08;4.05;;;1.80;;
22289;SDS011;11313;50.116;8.424;2024-02-14T10:12:34;4.18;;;1.80;;
22289;SDS011;11313;50.116;8.424;2024-02-14T10:15:00;2.90;;;1.55;;
22289;SDS011;11313;50.116;8.424;2024-02-14T10:17:29;2.97;;;1.60;;
22289;SDS011;11313;50.116;8.424;2024-02-14T10:19:57;2.83;;;1.70;;
22289;SDS011;11313;50.116;8.424;2024-02-14T10:22:24;3.15;;;1.80;;
22289;SDS011;11313;50.116;8.424;2024-02-14T10:24:50;2.38;;;1.30;;
22289;SDS011;11313;50.116;8.424;2024-02-14T10:27:16;4.20;;;1.90;;
22289;SDS011;11313;50.116;8.424;2024-02-14T10:29:42;2.90;;;1.65;;
22289;SDS011;11313;50.116;8.424;2024-02-14T10:32:09;2.83;;;1.67;;
22289;SDS011;11313;50.116;8.424;2024-02-14T10:34:34;2.88;;;1.50;;
22289;SDS011;11313;50.116;8.424;2024-02-14T10:37:02;2.88;;;1.60;;
22289;SDS011;11313;50.116;8.424;2024-02-14T10:39:31;2.13;;;1.70;;
22289;SDS011;11313;50.116;8.424;2024-02-14T10:42:00;3.75;;;1.50;;
22289;SDS011;11313;50.116;8.424;2024-02-14T10:44:26;3.17;;;1.90;;
22289;SDS011;11313;50.116;8.424;2024-02-14T10:46:52;2.13;;;1.60;;
22289;SDS011;11313;50.116;8.424;2024-02-14T10:49:20;3.20;;;1.58;;
22289;SDS011;11313;50.116;8.424;2024-02-14T10:51:46;4.50;;;1.80;;
22289;SDS011;11313;50.116;8.424;2024-02-14T10:54:14;2.70;;;1.52;;
22289;SDS011;11313;50.116;8.424;2024-02-14T10:56:42;2.10;;;1.40;;
22289;SDS011;11313;50.116;8.424;2024-02-14T10:59:10;2.05;;;1.50;;
22289;SDS011;11313;50.116;8.424;2024-02-14T11:01:40;3.20;;;1.88;;
22289;SDS011;11313;50.116;8.424;2024-02-14T11:04:07;3.70;;;1.40;;
22289;SDS011;11313;50.116;8.424;2024-02-14T11:06:43;2.60;;;1.30;;
22289;SDS011;11313;50.116;8.424;2024-02-14T11:09:12;2.90;;;1.70;;
22289;SDS011;11313;50.116;8.424;2024-02-14T11:11:40;2.63;;;1.30;;
22289;SDS011;11313;50.116;8.424;2024-02-14T11:14:23;2.53;;;1.60;;
22289;SDS011;11313;50.116;8.424;2024-02-14T11:16:49;2.15;;;1.48;;
22289;SDS011;11313;50.116;8.424;2024-02-14T11:19:17;2.97;;;1.38;;
22289;SDS011;11313;50.116;8.424;2024-02-14T11:21:45;2.53;;;1.40;;
22289;SDS011;11313;50.116;8.424;2024-02-14T11:24:12;1.98;;;1.40;;
22289;SDS011;11313;50.116;8.424;2024-02-14T11:26:47;2.25;;;1.35;;
22289;SDS011;11313;50.116;8.424;2024-02-14T11:29:16;2.15;;;1.23;;
22289;SDS011;11313;50.116;8.424;2024-02-14T11:31:45;2.70;;;1.60;;
22289;SDS011;11313;50.116;8.424;2024-02-14T11:34:11;3.45;;;1.50;;
22289;SDS011;11313;50.116;8.424;2024-02-14T11:36:37;3.25;;;1.40;;
22289;SDS011;11313;50.116;8.424;2024-02-14T11:39:04;3.25;;;1.60;;
22289;SDS011;11313;50.116;8.424;2024-02-14T11:41:30;1.85;;;1.38;;
22289;SDS011;11313;50.116;8.424;2024-02-14T11:44:00;2.28;;;1.50;;
22289;SDS011;11313;50.116;8.424;2024-02-14T11:46:30;2.10;;;1.23;;
22289;SDS011;11313;50.116;8.424;2024-02-14T11:49:00;2.38;;;1.30;;
22289;SDS011;11313;50.116;8.424;2024-02-14T11:51:27;3.47;;;1.60;;
22289;SDS011;11313;50.116;8.424;2024-02-14T11:53:54;1.75;;;1.25;;
22289;SDS011;11313;50.116;8.424;2024-02-14T11:56:20;3.05;;;1.30;;
22289;SDS011;11313;50.116;8.424;2024-02-14T11:58:47;2.28;;;1.13;;
22289;SDS011;11313;50.116;8.424;2024-02-14T12:01:15;1.88;;;1.25;;
22289;SDS011;11313;50.116;8.424;2024-02-14T12:03:43;2.78;;;1.20;;
22289;SDS011;11313;50.116;8.424;2024-02-14T12:06:09;1.55;;;1.20;;
22289;SDS011;11313;50.116;8.424;2024-02-14T12:08:35;1.85;;;1.33;;
22289;SDS011;11313;50.116;8.424;2024-02-14T12:11:02;1.38;;;1.20;;
22289;SDS011;11313;50.116;8.424;2024-02-14T12:13:28;2.72;;;1.50;;
22289;SDS011;11313;50.116;8.424;2024-02-14T12:15:57;2.05;;;1.20;;
22289;SDS011;11313;50.116;8.424;2024-02-14T12:18:23;2.38;;;1.15;;
22289;SDS011;11313;50.116;8.424;2024-02-14T12:20:48;2.88;;;1.20;;
22289;SDS011;11313;50.116;8.424;2024-02-14T12:23:19;1.70;;;1.10;;
22289;SDS011;11313;50.116;8.424;2024-02-14T12:25:45;1.77;;;1.20;;
22289;SDS011;11313;50.116;8.424;2024-02-14T12:28:18;2.47;;;1.55;;
22289;SDS011;11313;50.116;8.424;2024-02-14T12:30:45;2.50;;;1.08;;
22289;SDS011;11313;50.116;8.424;2024-02-14T12:33:12;3.22;;;1.15;;
22289;SDS011;11313;50.116;8.424;2024-02-14T12:35:45;2.25;;;1.20;;
22289;SDS011;11313;50.116;8.424;2024-02-14T12:38:12;1.67;;;1.10;;
22289;SDS011;11313;50.116;8.424;2024-02-14T12:40:39;2.72;;;1.10;;
22289;SDS011;11313;50.116;8.424;2024-02-14T12:43:09;1.33;;;1.10;;
22289;SDS011;11313;50.116;8.424;2024-02-14T12:45:35;2.05;;;1.30;;
22289;SDS011;11313;50.116;8.424;2024-02-14T12:48:05;3.00;;;1.20;;
22289;SDS011;11313;50.116;8.424;2024-02-14T12:50:32;3.22;;;1.30;;
22289;SDS011;11313;50.116;8.424;2024-02-14T12:52:59;4.32;;;1.30;;
22289;SDS011;11313;50.116;8.424;2024-02-14T12:55:28;2.67;;;1.23;;
22289;SDS011;11313;50.116;8.424;2024-02-14T12:57:56;1.70;;;1.33;;
22289;SDS011;11313;50.116;8.424;2024-02-14T13:00:22;3.08;;;1.30;;
22289;SDS011;11313;50.116;8.424;2024-02-14T13:02:48;3.10;;;1.20;;
22289;SDS011;11313;50.116;8.424;2024-02-14T13:05:15;2.40;;;1.35;;
22289;SDS011;11313;50.116;8.424;2024-02-14T13:07:41;2.28;;;1.40;;
22289;SDS011;11313;50.116;8.424;2024-02-14T13:10:07;2.63;;;1.40;;
22289;SDS011;11313;50.116;8.424;2024-02-14T13:12:35;3.33;;;1.30;;
22289;SDS011;11313;50.116;8.424;2024-02-14T13:15:02;3.28;;;1.40;;
22289;SDS011;11313;50.116;8.424;2024-02-14T13:17:28;2.55;;;1.25;;
22289;SDS011;11313;50.116;8.424;2024-02-14T13:19:54;2.78;;;1.40;;
22289;SDS011;11313;50.116;8.424;2024-02-14T13:22:19;2.42;;;1.40;;
22289;SDS011;11313;50.116;8.424;2024-02-14T13:24:45;2.90;;;1.30;;
22289;SDS011;11313;50.116;8.424;2024-02-14T13:27:10;3.42;;;1.40;;
22289;SDS011;11313;50.116;8.424;2024-02-14T13:29:36;2.63;;;1.40;;
22289;SDS011;11313;50.116;8.424;2024-02-14T13:32:01;5.50;;;1.50;;
22289;SDS011;11313;50.116;8.424;2024-02-14T13:34:28;2.70;;;1.50;;
22289;SDS011;11313;50.116;8.424;2024-02-14T13:36:53;5.22;;;1.42;;
22289;SDS011;11313;50.116;8.424;2024-02-14T13:39:21;3.60;;;1.50;;
22289;SDS011;11313;50.116;8.424;2024-02-14T13:41:47;2.08;;;1.20;;
22289;SDS011;11313;50.116;8.424;2024-02-14T13:44:12;3.10;;;1.50;;
22289;SDS011;11313;50.116;8.424;2024-02-14T13:46:38;2.47;;;1.20;;
22289;SDS011;11313;50.116;8.424;2024-02-14T13:49:08;3.47;;;1.20;;
22289;SDS011;11313;50.116;8.424;2024-02-14T13:51:35;5.93;;;1.60;;
22289;SDS011;11313;50.116;8.424;2024-02-14T13:54:01;5.03;;;1.50;;
22289;SDS011;11313;50.116;8.424;2024-02-14T13:56:27;5.28;;;1.48;;
22289;SDS011;11313;50.116;8.424;2024-02-14T13:58:52;3.40;;;1.38;;
22289;SDS011;11313;50.116;8.424;2024-02-14T14:01:18;3.88;;;1.30;;
22289;SDS011;11313;50.116;8.424;2024-02-14T14:03:43;4.63;;;1.63;;
22289;SDS011;11313;50.116;8.424;2024-02-14T14:06:09;4.68;;;1.40;;
22289;SDS011;11313;50.116;8.424;2024-02-14T14:08:35;2.95;;;1.33;;
22289;SDS011;11313;50.116;8.424;2024-02-14T14:11:02;2.85;;;1.20;;
22289;SDS011;11313;50.116;8.424;2024-02-14T14:13:28;2.50;;;1.30;;
22289;SDS011;11313;50.116;8.424;2024-02-14T14:15:56;4.65;;;1.30;;
22289;SDS011;11313;50.116;8.424;2024-02-14T14:18:22;5.00;;;1.30;;
22289;SDS011;11313;50.116;8.424;2024-02-14T14:20:48;4.90;;;1.40;;
22289;SDS011;11313;50.116;8.424;2024-02-14T14:23:14;4.43;;;1.40;;
22289;SDS011;11313;50.116;8.424;2024-02-14T14:25:39;3.65;;;1.42;;
22289;SDS011;11313;50.116;8.424;2024-02-14T14:28:05;3.92;;;1.77;;
22289;SDS011;11313;50.116;8.424;2024-02-14T14:30:31;3.75;;;1.30;;
22289;SDS011;11313;50.116;8.424;2024-02-14T14:32:56;3.17;;;1.48;;
22289;SDS011;11313;50.116;8.424;2024-02-14T14:35:21;3.33;;;1.70;;
22289;SDS011;11313;50.116;8.424;2024-02-14T14:37:47;4.07;;;1.70;;
22289;SDS011;11313;50.116;8.424;2024-02-14T14:40:12;4.32;;;1.42;;
22289;SDS011;11313;50.116;8.424;2024-02-14T14:42:38;1.80;;;1.17;;